createdAt,value
2022-08-07T00:01:44.256Z,100741.25
2022-08-07T00:04:46.188Z,100738.84
2022-08-07T00:07:40.088Z,100740.02
2022-08-07T00:10:31.561Z,100740.41
2022-08-07T00:13:25.671Z,100743.85
2022-08-07T00:16:17.651Z,100744.73
2022-08-07T00:19:26.203Z,100739.39
2022-08-07T00:22:35.567Z,100740.95
2022-08-07T00:25:25.156Z,100739.67
2022-08-07T00:28:15.481Z,100739.09
2022-08-07T00:31:12.695Z,100748.29
2022-08-07T00:34:04.211Z,100750.45
2022-08-07T00:36:58.024Z,100745.58
2022-08-07T00:39:54.337Z,100750.07
2022-08-07T00:42:42.680Z,100742.48
2022-08-07T00:45:31.158Z,100742.38
2022-08-07T00:48:19.727Z,100739.36
2022-08-07T00:51:19.401Z,100745.14
2022-08-07T00:54:07.976Z,100748.63
2022-08-07T00:57:00.388Z,100742.97
2022-08-07T00:59:48.938Z,100745.79
2022-08-07T01:02:37.210Z,100746.11
2022-08-07T01:05:29.064Z,100742.78
2022-08-07T01:08:17.772Z,100739.64
2022-08-07T01:11:22.920Z,100741.76
2022-08-07T01:14:21.273Z,100740.08
2022-08-07T01:17:16.502Z,100743.95
2022-08-07T01:20:17.116Z,100744.38
2022-08-07T01:23:12.758Z,100748.04
2022-08-07T01:26:02.745Z,100744.85
2022-08-07T01:28:53.893Z,100742.16
2022-08-07T01:31:51.215Z,100742.92
2022-08-07T01:34:39.465Z,100743.88
2022-08-07T01:37:33.901Z,100744.20
2022-08-07T01:40:24.998Z,100741.50
2022-08-07T01:43:17.818Z,100745.09
2022-08-07T01:46:08.397Z,100747.55
2022-08-07T01:49:03.219Z,100746.77
2022-08-07T01:52:02.503Z,100749.77
2022-08-07T01:54:56.601Z,100749.71
2022-08-07T01:58:06.944Z,100753.41
2022-08-07T02:01:09.725Z,100748.98
2022-08-07T02:04:36.197Z,100746.25
2022-08-07T02:07:44.695Z,100753.72
2022-08-07T02:10:43.180Z,100753.95
2022-08-07T02:13:57.930Z,100753.88
2022-08-07T02:16:51.654Z,100757.89
2022-08-07T02:20:06.593Z,100760.04
2022-08-07T02:22:59.877Z,100755.78
2022-08-07T02:26:30.735Z,100756.60
2022-08-07T02:28:58.454Z,100753.11
2022-08-07T02:31:49.752Z,100752.28
2022-08-07T02:34:48.893Z,100750.60
2022-08-07T02:37:44.097Z,100755.48
2022-08-07T02:40:35.276Z,100757.48
2022-08-07T02:43:25.116Z,100759.33
2022-08-07T02:46:17.584Z,100759.79
2022-08-07T02:49:07.544Z,100759.95
2022-08-07T02:51:59.272Z,100762.79
2022-08-07T02:54:49.580Z,100761.23
2022-08-07T02:57:41.497Z,100762.29
2022-08-07T03:00:39.084Z,100765.42
2022-08-07T03:03:42.271Z,100768.79
2022-08-07T03:06:40.056Z,100769.65
2022-08-07T03:09:42.343Z,100770.70
2022-08-07T03:12:34.770Z,100771.70
2022-08-07T03:15:47.737Z,100770.42
2022-08-07T03:18:36.455Z,100771.64
2022-08-07T03:21:27.749Z,100771.27
2022-08-07T03:24:18.961Z,100770.53
2022-08-07T03:27:30.108Z,100769.54
2022-08-07T03:30:24.307Z,100766.77
2022-08-07T03:33:14.723Z,100758.28
2022-08-07T03:36:03.384Z,100757.73
2022-08-07T03:39:05.848Z,100761.09
2022-08-07T03:41:58.514Z,100764.60
2022-08-07T03:44:53.674Z,100761.35
2022-08-07T03:47:51.116Z,100761.23
2022-08-07T03:50:43.252Z,100761.69
2022-08-07T03:54:32.814Z,100761.81
2022-08-07T03:57:03.605Z,100764.59
2022-08-07T04:00:01.660Z,100765.14
2022-08-07T04:02:52.932Z,100764.10
2022-08-07T04:05:50.850Z,100759.08
2022-08-07T04:08:42.424Z,100759.73
2022-08-07T04:12:23.991Z,100761.73
2022-08-07T04:14:47.691Z,100765.92
2022-08-07T04:18:30.964Z,100766.29
2022-08-07T04:20:54.572Z,100766.02
2022-08-07T04:24:03.612Z,100767.13
2022-08-07T04:26:52.380Z,100768.73
2022-08-07T04:30:01.113Z,100771.38
2022-08-07T04:33:15.712Z,100776.77
2022-08-07T04:36:09.093Z,100783.34
2022-08-07T04:38:57.452Z,100780.42
2022-08-07T04:41:50.894Z,100780.60
2022-08-07T04:44:54.799Z,100784.82
2022-08-07T04:48:05.999Z,100775.55
2022-08-07T04:51:49.617Z,100787.98
2022-08-07T04:58:09.901Z,100792.55
2022-08-07T05:02:32.712Z,100800.27
2022-08-07T05:05:53.605Z,100798.27
2022-08-07T05:09:00.777Z,100796.71
2022-08-07T05:11:57.536Z,100800.15
2022-08-07T05:14:59.106Z,100797.69
2022-08-07T05:18:06.226Z,100799.63
2022-08-07T05:21:01.410Z,100802.36
2022-08-07T05:24:06.834Z,100800.13
2022-08-07T05:26:59.484Z,100796.52
2022-08-07T05:29:52.074Z,100789.36
2022-08-07T05:32:41.705Z,100787.38
2022-08-07T05:35:41.754Z,100787.15
2022-08-07T05:39:00.201Z,100785.33
2022-08-07T05:42:01.664Z,100784.24
2022-08-07T05:45:04.466Z,100780.53
2022-08-07T05:48:05.901Z,100778.01
2022-08-07T05:51:04.624Z,100781.80
2022-08-07T05:54:12.816Z,100778.67
2022-08-07T05:57:03.534Z,100780.34
2022-08-07T05:59:57.615Z,100780.02
2022-08-07T06:02:51.998Z,100784.25
2022-08-07T06:05:48.857Z,100782.30
2022-08-07T06:08:42.636Z,100781.36
2022-08-07T06:11:34.782Z,100779.64
2022-08-07T06:14:28.703Z,100781.11
2022-08-07T06:17:22.277Z,100781.19
2022-08-07T06:20:12.761Z,100791.10
2022-08-07T06:23:46.465Z,100786.78
2022-08-07T06:26:27.459Z,100789.34
2022-08-07T06:29:17.600Z,100790.83
2022-08-07T06:32:06.287Z,100799.38
2022-08-07T06:34:55.353Z,100796.77
2022-08-07T06:37:44.689Z,100800.76
2022-08-07T06:40:50.174Z,100803.11
2022-08-07T06:43:46.113Z,100809.77
2022-08-07T06:46:40.841Z,100802.42
2022-08-07T06:49:33.382Z,100804.70
2022-08-07T06:52:45.194Z,100802.05
2022-08-07T06:55:47.542Z,100806.80
2022-08-07T06:58:37.609Z,100809.73
2022-08-07T07:01:33.325Z,100815.27
2022-08-07T07:04:34.033Z,100814.27
2022-08-07T07:07:59.108Z,100816.63
2022-08-07T07:10:34.741Z,100814.36
2022-08-07T07:13:56.483Z,100808.14
2022-08-07T07:16:51.023Z,100809.77
2022-08-07T07:19:56.130Z,100811.39
2022-08-07T07:24:08.377Z,100806.61
2022-08-07T07:26:34.471Z,100804.46
2022-08-07T07:29:55.756Z,100800.89
2022-08-07T07:32:24.669Z,100797.60
2022-08-07T07:35:14.463Z,100791.49
2022-08-07T07:38:05.744Z,100794.20
2022-08-07T07:41:02.851Z,100792.86
2022-08-07T07:44:14.204Z,100790.35
2022-08-07T07:47:14.149Z,100792.45
2022-08-07T07:50:35.716Z,100792.23
2022-08-07T07:53:23.155Z,100791.49
2022-08-07T07:56:15.847Z,100785.41
2022-08-07T07:59:06.549Z,100787.92
2022-08-07T08:02:03.942Z,100782.84
2022-08-07T08:04:56.424Z,100794.67
2022-08-07T08:08:00.749Z,100797.77
2022-08-07T08:10:51.598Z,100794.98
2022-08-07T08:13:54.592Z,100787.40
2022-08-07T08:16:50.259Z,100794.18
2022-08-07T08:20:17.570Z,100803.02
2022-08-07T08:23:10.381Z,100805.27
2022-08-07T08:26:21.822Z,100799.71
2022-08-07T08:29:17.204Z,100789.38
2022-08-07T08:32:18.994Z,100786.04
2022-08-07T08:35:42.940Z,100783.77
2022-08-07T08:38:44.531Z,100786.34
2022-08-07T08:42:01.353Z,100791.16
2022-08-07T08:45:01.085Z,100798.43
2022-08-07T08:48:18.798Z,100797.42
2022-08-07T08:51:49.890Z,100795.55
2022-08-07T08:54:48.391Z,100805.71
2022-08-07T08:57:45.753Z,100807.39
2022-08-07T09:00:48.349Z,100803.14
2022-08-07T09:04:08.103Z,100804.23
2022-08-07T09:07:25.384Z,100800.23
2022-08-07T09:10:34.186Z,100793.18
2022-08-07T09:14:01.784Z,100794.79
2022-08-07T09:17:18.645Z,100788.30
2022-08-07T09:20:35.298Z,100788.75
2022-08-07T09:24:33.686Z,100786.73
2022-08-07T09:27:30.317Z,100780.15
2022-08-07T09:30:20.602Z,100783.95
2022-08-07T09:33:57.013Z,100777.83
2022-08-07T09:37:01.407Z,100772.06
2022-08-07T09:40:06.237Z,100775.97
2022-08-07T09:44:06.000Z,100771.52
2022-08-07T09:47:49.711Z,100767.16
2022-08-07T09:51:00.872Z,100761.04
2022-08-07T09:53:57.050Z,100770.19
2022-08-07T09:57:46.622Z,100771.20
2022-08-07T10:00:52.108Z,100780.94
2022-08-07T10:04:17.059Z,100781.52
2022-08-07T10:08:09.704Z,100786.50
2022-08-07T10:12:03.154Z,100792.98
2022-08-07T10:14:54.977Z,100786.94
2022-08-07T10:18:26.432Z,100796.61
2022-08-07T10:22:16.101Z,100793.31
2022-08-07T10:25:42.567Z,100789.98
2022-08-07T10:28:41.732Z,100789.23
2022-08-07T10:32:04.587Z,100784.13
2022-08-07T10:35:55.090Z,100784.49
2022-08-07T10:39:05.470Z,100780.34
2022-08-07T10:42:38.987Z,100774.88
2022-08-07T10:45:58.079Z,100773.46
2022-08-07T10:49:15.947Z,100769.64
2022-08-07T10:52:22.109Z,100756.84
2022-08-07T10:55:53.533Z,100755.20
2022-08-07T10:59:21.258Z,100747.05
2022-08-07T11:03:03.939Z,100745.62
2022-08-07T11:06:15.756Z,100738.55
2022-08-07T11:10:07.979Z,100732.73
2022-08-07T11:14:41.943Z,100730.00
2022-08-07T11:16:48.000Z,100726.32
2022-08-07T11:19:55.200Z,100737.88
2022-08-07T11:23:36.506Z,100737.96
2022-08-07T11:26:43.435Z,100738.48
2022-08-07T11:29:53.875Z,100739.16
2022-08-07T11:33:19.239Z,100741.52
2022-08-07T11:37:03.007Z,100740.07
2022-08-07T11:40:10.138Z,100742.32
2022-08-07T11:43:41.711Z,100735.37
2022-08-07T11:47:02.840Z,100739.09
2022-08-07T11:50:44.751Z,100732.02
2022-08-07T11:54:54.434Z,100733.82
2022-08-07T11:58:16.085Z,100735.75
2022-08-07T12:01:06.781Z,100729.95
2022-08-07T12:04:37.915Z,100733.45
2022-08-07T12:07:39.231Z,100733.81
2022-08-07T12:10:49.263Z,100735.05
2022-08-07T12:14:08.682Z,100730.16
2022-08-07T12:17:07.158Z,100727.03
2022-08-07T12:20:12.917Z,100726.21
2022-08-07T12:24:07.615Z,100722.55
2022-08-07T12:27:03.481Z,100720.57
2022-08-07T12:30:07.471Z,100716.71
2022-08-07T12:33:18.645Z,100718.91
2022-08-07T12:36:11.024Z,100726.55
2022-08-07T12:39:00.132Z,100721.29
2022-08-07T12:41:51.840Z,100726.19
2022-08-07T12:44:47.178Z,100731.96
2022-08-07T12:48:28.500Z,100727.33
2022-08-07T12:51:33.207Z,100729.39
2022-08-07T12:55:16.371Z,100732.38
2022-08-07T12:58:12.854Z,100735.70
2022-08-07T13:01:06.486Z,100735.59
2022-08-07T13:04:57.696Z,100732.19
2022-08-07T13:08:32.762Z,100728.68
2022-08-07T13:12:03.583Z,100723.06
2022-08-07T13:15:31.619Z,100722.11
2022-08-07T13:18:54.804Z,100717.77
2022-08-07T13:22:31.649Z,100714.44
2022-08-07T13:25:45.961Z,100710.77
2022-08-07T13:28:59.046Z,100710.00
2022-08-07T13:32:31.052Z,100712.41
2022-08-07T13:36:00.626Z,100710.21
2022-08-07T13:39:48.954Z,100715.73
2022-08-07T13:42:37.582Z,100713.58
2022-08-07T13:46:12.412Z,100711.40
2022-08-07T13:48:51.979Z,100708.21
2022-08-07T13:52:16.382Z,100712.45
2022-08-07T13:55:00.617Z,100710.56
2022-08-07T13:58:02.031Z,100709.55
2022-08-07T14:00:54.775Z,100704.70
2022-08-07T14:04:07.114Z,100705.52
2022-08-07T14:06:55.403Z,100705.29
2022-08-07T14:10:02.376Z,100706.20
2022-08-07T14:13:01.471Z,100707.42
2022-08-07T14:16:00.492Z,100708.20
2022-08-07T14:18:57.311Z,100711.46
2022-08-07T14:22:00.967Z,100709.98
2022-08-07T14:24:53.611Z,100704.36
2022-08-07T14:28:12.356Z,100707.02
2022-08-07T14:30:58.440Z,100712.98
2022-08-07T14:33:49.815Z,100709.14
2022-08-07T14:36:39.285Z,100708.06
2022-08-07T14:40:15.559Z,100704.67
2022-08-07T14:45:51.621Z,100700.84
2022-08-07T14:48:48.398Z,100703.06
2022-08-07T14:54:49.719Z,100711.49
2022-08-07T14:57:54.678Z,100709.55
2022-08-07T15:00:51.548Z,100713.15
2022-08-07T15:03:52.576Z,100717.25
2022-08-07T15:06:48.970Z,100710.28
2022-08-07T15:13:06.400Z,100710.53
2022-08-07T15:20:31.500Z,100712.44
2022-08-07T15:26:22.555Z,100713.39
2022-08-07T15:30:06.467Z,100709.31
2022-08-07T15:32:39.938Z,100708.52
2022-08-07T15:38:58.928Z,100702.42
2022-08-07T15:42:46.616Z,100700.83
2022-08-07T15:45:55.467Z,100698.17
2022-08-07T15:49:03.682Z,100702.86
2022-08-07T15:54:48.439Z,100698.22
2022-08-07T15:57:40.000Z,100696.82
2022-08-07T16:00:44.315Z,100695.10
2022-08-07T16:03:46.980Z,100694.78
2022-08-07T16:07:04.752Z,100689.04
2022-08-07T16:10:14.944Z,100693.45
2022-08-07T16:13:59.301Z,100697.84
2022-08-07T16:18:03.933Z,100703.69
2022-08-07T16:22:03.301Z,100699.86
2022-08-07T16:25:55.528Z,100699.89
2022-08-07T16:30:07.090Z,100694.35
2022-08-07T16:32:34.476Z,100691.09
2022-08-07T16:35:56.902Z,100677.98
2022-08-07T16:39:33.735Z,100694.27
2022-08-07T16:42:58.117Z,100689.91
2022-08-07T16:47:04.448Z,100691.85
2022-08-07T16:50:28.441Z,100687.92
2022-08-07T16:54:08.882Z,100686.79
2022-08-07T16:58:01.752Z,100689.31
2022-08-07T17:01:08.062Z,100688.58
2022-08-07T17:04:24.689Z,100688.29
2022-08-07T17:07:55.230Z,100684.78
2022-08-07T17:10:54.512Z,100682.71
2022-08-07T17:14:19.386Z,100686.52
2022-08-07T17:17:44.060Z,100690.79
2022-08-07T17:20:41.954Z,100690.84
2022-08-07T17:23:54.125Z,100688.72
2022-08-07T17:26:59.658Z,100688.36
2022-08-07T17:30:16.192Z,100680.74
2022-08-07T17:34:09.249Z,100690.55
2022-08-07T17:36:57.952Z,100690.41
2022-08-07T17:40:30.611Z,100695.88
2022-08-07T17:44:01.431Z,100694.55
2022-08-07T17:46:55.101Z,100693.82
2022-08-07T17:49:56.952Z,100691.33
2022-08-07T17:54:01.552Z,100692.66
2022-08-07T17:56:36.528Z,100693.69
2022-08-07T18:00:06.002Z,100690.30
2022-08-07T18:03:18.478Z,100689.44
2022-08-07T18:06:16.677Z,100695.16
2022-08-07T18:10:04.410Z,100691.43
2022-08-07T18:12:59.806Z,100691.79
2022-08-07T18:16:09.320Z,100699.25
2022-08-07T18:21:07.526Z,100698.53
2022-08-07T18:22:47.679Z,100700.33
2022-08-07T18:25:41.895Z,100703.09
2022-08-07T18:30:06.173Z,100702.81
2022-08-07T18:32:55.637Z,100709.63
2022-08-07T18:36:54.410Z,100712.36
2022-08-07T18:40:17.933Z,100715.33
2022-08-07T18:44:00.681Z,100722.50
2022-08-07T18:47:25.494Z,100734.95
2022-08-07T18:50:49.568Z,100734.58
2022-08-07T18:54:30.967Z,100735.53
2022-08-07T18:57:33.489Z,100740.06
2022-08-07T19:02:18.880Z,100731.75
2022-08-07T19:04:57.855Z,100740.42
2022-08-07T19:08:28.046Z,100740.19
2022-08-07T19:11:36.639Z,100743.63
2022-08-07T19:16:05.826Z,100747.48
2022-08-07T19:18:45.080Z,100747.27
2022-08-07T19:22:04.866Z,100747.06
2022-08-07T19:24:54.118Z,100749.34
2022-08-07T19:28:58.737Z,100751.92
2022-08-07T19:31:37.312Z,100757.67
2022-08-07T19:34:11.871Z,100756.84
2022-08-07T19:37:10.035Z,100753.64
2022-08-07T19:40:09.770Z,100753.87
2022-08-07T19:42:57.559Z,100757.77
2022-08-07T19:46:07.246Z,100755.74
2022-08-07T19:49:17.792Z,100763.41
2022-08-07T19:52:32.168Z,100763.08
2022-08-07T19:55:24.188Z,100772.86
2022-08-07T19:58:15.872Z,100772.37
2022-08-07T20:01:04.071Z,100774.13
2022-08-07T20:04:04.450Z,100776.06
2022-08-07T20:06:56.645Z,100771.88
2022-08-07T20:10:35.427Z,100779.69
2022-08-07T20:13:05.876Z,100778.46
2022-08-07T20:15:57.846Z,100777.52
2022-08-07T20:18:49.165Z,100781.23
2022-08-07T20:21:47.517Z,100785.56
2022-08-07T20:24:38.681Z,100781.23
2022-08-07T20:27:47.662Z,100781.38
2022-08-07T20:30:46.865Z,100779.48
2022-08-07T20:33:38.280Z,100779.82
2022-08-07T20:36:31.495Z,100780.68
2022-08-07T20:40:04.021Z,100784.02
2022-08-07T20:42:56.227Z,100786.91
2022-08-07T20:46:25.920Z,100790.33
2022-08-07T20:49:59.006Z,100789.23
2022-08-07T20:52:29.910Z,100787.93
2022-08-07T20:55:23.852Z,100784.27
2022-08-07T20:58:19.491Z,100783.23
2022-08-07T21:01:19.416Z,100787.73
2022-08-07T21:04:21.823Z,100782.70
2022-08-07T21:07:14.579Z,100783.67
2022-08-07T21:10:11.625Z,100787.84
2022-08-07T21:13:05.212Z,100787.11
2022-08-07T21:16:00.967Z,100790.70
2022-08-07T21:18:51.275Z,100788.85
2022-08-07T21:21:49.298Z,100791.62
2022-08-07T21:25:29.150Z,100797.10
2022-08-07T21:28:48.262Z,100795.46
2022-08-07T21:32:47.763Z,100795.23
2022-08-07T21:36:06.088Z,100791.55
2022-08-07T21:38:55.527Z,100794.36
2022-08-07T21:42:42.543Z,100796.05
2022-08-07T21:46:09.225Z,100797.19
2022-08-07T21:49:17.992Z,100796.19
2022-08-07T21:52:44.421Z,100791.83
2022-08-07T21:55:56.143Z,100791.91
2022-08-07T21:59:04.626Z,100791.67
2022-08-07T22:02:10.420Z,100792.48
2022-08-07T22:05:04.034Z,100792.69
2022-08-07T22:07:58.685Z,100792.39
2022-08-07T22:10:58.258Z,100796.65
2022-08-07T22:13:54.890Z,100794.61
2022-08-07T22:16:56.548Z,100791.83
2022-08-07T22:20:22.959Z,100795.68
2022-08-07T22:23:26.657Z,100801.86
2022-08-07T22:26:30.555Z,100791.81
2022-08-07T22:29:54.825Z,100797.88
2022-08-07T22:33:15.335Z,100791.83
2022-08-07T22:36:34.362Z,100791.71
2022-08-07T22:39:52.473Z,100789.76
2022-08-07T22:42:44.932Z,100787.25
2022-08-07T22:46:40.932Z,100789.36
2022-08-07T22:49:54.178Z,100783.38
2022-08-07T22:54:07.643Z,100781.36
2022-08-07T22:57:04.000Z,100778.73
2022-08-07T23:00:14.907Z,100762.87
2022-08-07T23:03:29.041Z,100767.11
2022-08-07T23:06:57.975Z,100764.90
2022-08-07T23:10:36.413Z,100768.56
2022-08-07T23:14:16.491Z,100766.79
2022-08-07T23:17:29.779Z,100764.92
2022-08-07T23:21:02.886Z,100761.27
2022-08-07T23:24:45.431Z,100761.17
2022-08-07T23:28:28.477Z,100759.66
2022-08-07T23:32:49.621Z,100763.73
2022-08-07T23:35:16.783Z,100767.29
2022-08-07T23:38:45.285Z,100764.91
2022-08-07T23:42:05.107Z,100765.47
2022-08-07T23:45:33.488Z,100763.41
2022-08-07T23:48:50.600Z,100762.90
2022-08-07T23:53:00.113Z,100761.93
2022-08-07T23:55:05.547Z,100757.58
2022-08-07T23:58:18.783Z,100756.83
